Time;durP1;ratioP1;P1;durP2;ratioP2;P2;SDS_P1;SDS_P2;PMS_P1;PMS_P2;Temp;Humidity;BMP_temperature;BMP_pressure;BME280_temperature;BME280_humidity;BME280_pressure;Samples;Min_cycle;Max_cycle;Signal;HPM_P1;HPM_P2
2024/02/24 00:00:12;;;;;;;6.15;1.92;;;4.80;63.10;;;;;;4974430;28;20068;-74
2024/02/24 00:02:37;;;;;;;3.85;1.73;;;4.70;63.50;;;;;;4974412;28;20361;-73
2024/02/24 00:05:03;;;;;;;4.55;1.88;;;4.60;63.90;;;;;;4978510;28;20038;-72
2024/02/24 00:07:29;;;;;;;4.55;1.98;;;4.60;64.40;;;;;;4974331;28;20539;-74
2024/02/24 00:09:55;;;;;;;6.35;3.15;;;4.50;64.80;;;;;;4974292;28;20480;-74
2024/02/24 00:12:20;;;;;;;26.20;11.43;;;4.40;65.10;;;;;;4974162;28;20019;-74
2024/02/24 00:14:46;;;;;;;24.23;9.10;;;4.40;65.40;;;;;;4974190;28;20027;-72
2024/02/24 00:17:11;;;;;;;16.83;7.90;;;4.30;65.80;;;;;;4974057;28;20047;-72
2024/02/24 00:19:37;;;;;;;11.15;5.07;;;4.30;66.80;;;;;;4973816;28;20023;-72
2024/02/24 00:22:02;;;;;;;5.03;2.30;;;4.20;66.10;;;;;;4974025;28;20023;-73
2024/02/24 00:24:28;;;;;;;5.32;2.10;;;4.20;66.20;;;;;;4956165;28;20046;-74
2024/02/24 00:26:53;;;;;;;5.22;1.52;;;4.10;66.50;;;;;;4956624;28;20117;-74
2024/02/24 00:29:19;;;;;;;3.35;1.42;;;4.10;66.80;;;;;;4974047;28;20085;-72
2024/02/24 00:31:44;;;;;;;2.60;0.90;;;4.10;67.00;;;;;;4974103;28;20106;-72
2024/02/24 00:34:10;;;;;;;5.45;1.10;;;4.20;67.00;;;;;;4973966;28;20026;-74
2024/02/24 00:36:35;;;;;;;3.72;1.20;;;4.30;66.60;;;;;;4973937;28;20034;-72
2024/02/24 00:39:01;;;;;;;3.53;0.82;;;4.40;65.90;;;;;;4973844;28;20029;-72
2024/02/24 00:41:26;;;;;;;2.13;0.80;;;4.50;65.40;;;;;;4973773;28;20027;-73
2024/02/24 00:43:55;;;;;;;3.58;1.23;;;4.60;65.10;;;;;;4973855;28;20026;-72
2024/02/24 00:46:20;;;;;;;5.15;0.93;;;4.60;64.60;;;;;;4973909;28;20205;-73
2024/02/24 00:48:46;;;;;;;2.97;0.90;;;4.70;64.50;;;;;;4973947;28;20102;-75
2024/02/24 00:51:11;;;;;;;6.20;0.90;;;4.70;64.40;;;;;;4973836;28;20484;-73
2024/02/24 00:53:37;;;;;;;3.67;0.90;;;4.80;63.90;;;;;;4973905;28;20027;-73
2024/02/24 00:56:02;;;;;;;3.35;0.73;;;4.80;63.80;;;;;;4956558;28;20027;-74
2024/02/24 00:58:28;;;;;;;2.53;0.65;;;4.90;63.80;;;;;;4973855;28;20019;-73
2024/02/24 01:00:53;;;;;;;4.15;1.00;;;4.80;63.70;;;;;;4956702;28;20518;-73
2024/02/24 01:03:20;;;;;;;4.03;0.95;;;4.80;63.80;;;;;;4956518;28;20030;-73
2024/02/24 01:05:45;;;;;;;4.35;0.75;;;4.80;64.00;;;;;;4956446;28;20042;-73
2024/02/24 01:08:11;;;;;;;3.60;0.90;;;4.80;63.90;;;;;;4956545;28;20031;-73
2024/02/24 01:10:37;;;;;;;3.28;1.23;;;4.80;64.30;;;;;;4956609;28;20027;-73
2024/02/24 01:13:03;;;;;;;3.15;1.02;;;4.70;64.60;;;;;;4956590;28;20023;-74
2024/02/24 01:15:28;;;;;;;2.45;1.00;;;4.70;64.70;;;;;;4956411;28;20031;-74
2024/02/24 01:17:57;;;;;;;2.72;1.02;;;4.70;65.00;;;;;;4956737;28;20529;-74
2024/02/24 01:20:23;;;;;;;4.43;1.17;;;4.70;65.10;;;;;;4956466;28;20035;-74
2024/02/24 01:22:52;;;;;;;2.50;1.15;;;4.60;65.00;;;;;;4956039;28;20023;-73
2024/02/24 01:25:18;;;;;;;3.25;1.10;;;4.60;65.00;;;;;;4956446;28;20038;-73
2024/02/24 01:27:44;;;;;;;3.22;1.20;;;4.60;65.10;;;;;;4973688;28;20492;-74
2024/02/24 01:30:10;;;;;;;4.70;1.70;;;4.60;65.20;;;;;;4955936;28;20034;-73
2024/02/24 01:32:35;;;;;;;3.45;1.80;;;4.70;65.10;;;;;;4956316;28;20018;-73
2024/02/24 01:35:02;;;;;;;4.28;1.20;;;4.50;65.40;;;;;;4956365;28;20031;-73
2024/02/24 01:37:28;;;;;;;4.03;1.80;;;4.40;66.10;;;;;;4975023;28;20069;-72
2024/02/24 01:39:53;;;;;;;3.63;1.70;;;4.30;66.50;;;;;;4959368;28;20455;-73
2024/02/24 01:42:19;;;;;;;4.22;1.70;;;4.30;66.60;;;;;;4959621;28;20490;-74
2024/02/24 01:44:45;;;;;;;5.25;2.17;;;4.30;67.00;;;;;;4976954;28;20098;-73
2024/02/24 01:47:11;;;;;;;3.45;1.85;;;4.20;67.30;;;;;;4976821;28;20113;-72
2024/02/24 01:49:38;;;;;;;4.07;2.05;;;4.20;67.60;;;;;;4976801;28;20411;-72
2024/02/24 01:52:05;;;;;;;5.57;1.98;;;4.20;67.70;;;;;;4976815;28;20027;-73
2024/02/24 01:54:31;;;;;;;4.78;2.13;;;4.20;68.00;;;;;;4976982;28;20019;-73
2024/02/24 01:56:57;;;;;;;6.07;2.17;;;4.20;68.20;;;;;;4976722;28;20019;-73
2024/02/24 01:59:24;;;;;;;5.03;1.80;;;4.20;68.40;;;;;;4976790;28;20023;-73
2024/02/24 02:01:50;;;;;;;3.85;1.67;;;4.10;68.70;;;;;;4976689;28;20031;-73
2024/02/24 02:04:16;;;;;;;4.53;2.03;;;4.10;68.70;;;;;;4976654;28;20043;-73
2024/02/24 02:06:41;;;;;;;3.50;1.90;;;4.20;68.70;;;;;;4976630;28;20035;-74
2024/02/24 02:09:07;;;;;;;3.90;1.27;;;4.20;68.70;;;;;;4970379;28;20034;-74
2024/02/24 02:11:32;;;;;;;5.68;2.35;;;4.30;69.00;;;;;;4983810;28;20030;-73
2024/02/24 02:13:58;;;;;;;7.15;3.28;;;4.30;68.90;;;;;;4958927;28;20026;-73
2024/02/24 02:16:23;;;;;;;7.65;4.28;;;4.30;68.70;;;;;;4976180;28;20076;-74
2024/02/24 02:18:49;;;;;;;6.65;3.03;;;4.30;68.60;;;;;;4976360;28;20101;-73
2024/02/24 02:21:16;;;;;;;6.95;2.60;;;4.30;68.70;;;;;;4976143;28;20043;-74
2024/02/24 02:23:41;;;;;;;4.95;2.60;;;4.30;68.80;;;;;;4976133;28;20074;-74
2024/02/24 02:26:07;;;;;;;7.88;2.90;;;4.30;69.00;;;;;;4958800;28;20058;-73
2024/02/24 02:28:32;;;;;;;3.88;2.13;;;4.30;69.10;;;;;;4976255;28;20502;-73
2024/02/24 02:31:00;;;;;;;9.15;3.22;;;4.30;69.10;;;;;;4976079;28;20027;-73
2024/02/24 02:33:25;;;;;;;8.32;2.72;;;4.30;69.20;;;;;;4976091;28;20507;-73
2024/02/24 02:35:51;;;;;;;7.28;3.22;;;4.20;69.20;;;;;;4975859;28;20034;-73
2024/02/24 02:38:16;;;;;;;5.70;2.88;;;4.20;69.40;;;;;;4975919;28;20113;-72
2024/02/24 02:40:42;;;;;;;6.32;2.55;;;4.20;69.60;;;;;;4975613;28;20077;-72
2024/02/24 02:43:08;;;;;;;6.93;2.60;;;4.20;69.70;;;;;;4958265;28;20162;-72
2024/02/24 02:45:33;;;;;;;3.40;1.67;;;4.20;69.70;;;;;;4975840;28;20480;-72
2024/02/24 02:47:59;;;;;;;2.22;1.70;;;4.10;69.90;;;;;;4974604;28;20035;-72
2024/02/24 02:50:24;;;;;;;3.97;2.20;;;4.10;70.10;;;;;;4975686;28;20038;-73
2024/02/24 02:52:50;;;;;;;5.05;2.83;;;4.10;70.20;;;;;;4975545;28;20097;-73
2024/02/24 02:55:17;;;;;;;6.20;2.63;;;4.10;70.60;;;;;;4975657;28;20054;-73
2024/02/24 02:57:43;;;;;;;6.18;2.55;;;4.00;70.80;;;;;;4975620;28;20022;-73
2024/02/24 03:00:09;;;;;;;7.10;3.05;;;3.90;70.80;;;;;;4975775;28;20026;-72
2024/02/24 03:02:35;;;;;;;4.20;2.22;;;3.90;71.20;;;;;;4975434;28;20033;-72
2024/02/24 03:05:00;;;;;;;6.88;3.90;;;3.90;71.30;;;;;;4975438;28;20109;-73
2024/02/24 03:07:26;;;;;;;8.48;3.90;;;3.80;71.60;;;;;;4975299;28;20035;-73
2024/02/24 03:09:51;;;;;;;6.65;4.07;;;3.70;72.00;;;;;;4975232;28;20081;-73
2024/02/24 03:12:17;;;;;;;12.05;4.65;;;3.70;72.20;;;;;;4975315;28;20038;-73
2024/02/24 03:14:43;;;;;;;10.15;4.45;;;3.70;72.40;;;;;;4975216;28;20368;-74
2024/02/24 03:17:08;;;;;;;11.35;5.85;;;3.60;72.40;;;;;;4975050;28;20097;-73
2024/02/24 03:19:34;;;;;;;11.57;5.90;;;3.60;72.60;;;;;;4974965;28;20423;-73
2024/02/24 03:22:00;;;;;;;11.07;4.97;;;3.60;72.60;;;;;;4975002;28;20031;-73
2024/02/24 03:24:25;;;;;;;13.73;5.80;;;3.50;72.60;;;;;;4957625;28;20023;-73
2024/02/24 03:26:50;;;;;;;9.73;4.70;;;3.50;73.10;;;;;;4974995;28;20026;-73
2024/02/24 03:29:16;;;;;;;6.25;3.47;;;3.40;73.00;;;;;;4974958;28;20369;-73
2024/02/24 03:31:42;;;;;;;7.15;2.80;;;3.40;73.30;;;;;;4974862;28;20026;-73
2024/02/24 03:34:07;;;;;;;2.22;1.20;;;3.40;73.30;;;;;;4957376;28;20034;-72
2024/02/24 03:36:33;;;;;;;2.75;1.20;;;3.40;73.10;;;;;;4974750;28;20026;-73
2024/02/24 03:38:58;;;;;;;3.03;1.35;;;3.50;73.10;;;;;;4974689;28;20022;-73
2024/02/24 03:41:25;;;;;;;4.97;1.70;;;3.40;73.00;;;;;;4974659;28;20139;-73
2024/02/24 03:43:51;;;;;;;4.75;1.33;;;3.50;73.10;;;;;;4974685;28;20118;-73
2024/02/24 03:46:17;;;;;;;3.60;1.80;;;3.50;73.10;;;;;;4974769;28;20110;-73
2024/02/24 03:48:45;;;;;;;4.60;2.35;;;3.50;73.20;;;;;;4974628;28;20125;-73
2024/02/24 03:51:11;;;;;;;5.13;2.28;;;3.50;73.20;;;;;;4957195;28;20031;-73
2024/02/24 03:53:36;;;;;;;6.35;1.80;;;3.50;73.30;;;;;;4974624;28;20031;-73
2024/02/24 03:56:02;;;;;;;5.72;1.58;;;3.60;73.20;;;;;;4974566;28;20392;-73
2024/02/24 03:58:28;;;;;;;2.55;1.42;;;3.70;73.20;;;;;;4974110;28;20041;-73
2024/02/24 04:00:53;;;;;;;2.55;1.40;;;3.70;72.90;;;;;;4974311;28;20046;-75
2024/02/24 04:03:19;;;;;;;2.75;1.25;;;3.80;72.60;;;;;;4974445;28;20023;-73
2024/02/24 04:05:46;;;;;;;6.68;1.75;;;3.80;72.40;;;;;;4974397;28;20035;-75
2024/02/24 04:08:12;;;;;;;3.38;1.55;;;3.80;72.40;;;;;;4974465;28;20015;-75
2024/02/24 04:10:37;;;;;;;5.18;1.55;;;3.80;72.30;;;;;;4974448;28;20427;-74
2024/02/24 04:13:03;;;;;;;2.95;1.33;;;3.90;72.40;;;;;;4956945;28;20503;-74
2024/02/24 04:15:28;;;;;;;4.32;1.63;;;3.80;72.20;;;;;;4974059;28;20027;-74
2024/02/24 04:17:54;;;;;;;3.58;1.42;;;3.80;72.30;;;;;;4974303;28;20067;-73
2024/02/24 04:20:20;;;;;;;5.45;1.30;;;3.80;72.50;;;;;;4974071;28;20469;-73
2024/02/24 04:22:45;;;;;;;2.83;1.40;;;3.80;72.50;;;;;;4974201;28;20038;-73
2024/02/24 04:25:11;;;;;;;2.53;1.48;;;3.80;72.50;;;;;;4974155;28;20486;-73
2024/02/24 04:27:36;;;;;;;1.45;0.90;;;3.80;73.50;;;;;;4974175;28;20515;-73
2024/02/24 04:30:03;;;;;;;3.05;1.50;;;3.80;72.70;;;;;;4974105;28;20034;-72
2024/02/24 04:32:29;;;;;;;3.47;1.38;;;3.80;72.80;;;;;;4973946;28;20050;-72
2024/02/24 04:34:55;;;;;;;2.72;1.23;;;3.80;72.90;;;;;;4973871;28;20027;-74
2024/02/24 04:37:23;;;;;;;2.20;1.40;;;3.80;73.00;;;;;;4973959;28;20019;-73
2024/02/24 04:39:48;;;;;;;4.45;1.27;;;3.70;73.20;;;;;;4973653;28;20379;-73
2024/02/24 04:42:14;;;;;;;4.97;1.90;;;3.70;73.80;;;;;;4956557;28;20113;-73
2024/02/24 04:44:39;;;;;;;3.55;2.03;;;3.80;74.70;;;;;;4973950;28;20128;-72
2024/02/24 04:47:05;;;;;;;6.65;2.08;;;3.80;74.90;;;;;;4973838;28;20026;-74
2024/02/24 04:49:30;;;;;;;8.05;2.40;;;3.80;74.90;;;;;;4973812;28;20039;-76
2024/02/24 04:51:56;;;;;;;3.47;1.98;;;3.90;74.60;;;;;;4973755;28;20078;-74
2024/02/24 04:54:22;;;;;;;3.55;1.80;;;3.90;74.50;;;;;;4973791;28;20034;-74
2024/02/24 04:56:48;;;;;;;4.95;1.70;;;3.90;74.20;;;;;;4973708;28;20407;-72
2024/02/24 04:59:14;;;;;;;5.32;2.05;;;4.00;74.00;;;;;;4973823;28;20031;-72
2024/02/24 05:01:39;;;;;;;4.57;2.03;;;4.00;73.90;;;;;;4973789;28;20027;-73
2024/02/24 05:04:05;;;;;;;3.30;1.98;;;4.00;74.10;;;;;;4956386;28;20141;-73
2024/02/24 05:06:30;;;;;;;5.88;2.00;;;4.00;74.00;;;;;;4973885;28;20027;-73
2024/02/24 05:08:56;;;;;;;2.33;1.65;;;4.00;74.10;;;;;;4973768;28;20644;-73
2024/02/24 05:11:21;;;;;;;5.30;2.33;;;3.90;74.50;;;;;;4975267;28;20037;-73
2024/02/24 05:13:47;;;;;;;4.70;1.98;;;3.90;74.40;;;;;;4977450;28;20093;-72
2024/02/24 05:16:14;;;;;;;2.25;1.20;;;3.90;74.30;;;;;;4977247;28;20050;-73
2024/02/24 05:18:40;;;;;;;6.32;2.17;;;3.90;73.10;;;;;;4960202;28;20022;-73
2024/02/24 05:21:06;;;;;;;1.60;0.98;;;4.00;73.80;;;;;;4977316;28;20030;-73
2024/02/24 05:23:32;;;;;;;2.70;0.98;;;4.00;72.80;;;;;;4977323;28;20027;-73
2024/02/24 05:25:57;;;;;;;0.70;0.45;;;4.10;72.10;;;;;;4977345;28;20429;-73
2024/02/24 05:28:23;;;;;;;1.30;0.40;;;4.20;71.70;;;;;;4959943;28;20109;-74
2024/02/24 05:30:48;;;;;;;0.65;0.50;;;4.30;71.90;;;;;;4977230;28;20037;-74
2024/02/24 05:33:15;;;;;;;1.50;0.40;;;4.20;73.20;;;;;;4976961;28;20113;-75
2024/02/24 05:35:40;;;;;;;0.20;0.20;;;4.20;73.40;;;;;;4977182;28;20030;-74
2024/02/24 05:38:06;;;;;;;0.77;0.43;;;4.10;74.90;;;;;;4977104;28;20030;-73
2024/02/24 05:40:31;;;;;;;0.50;0.30;;;4.10;75.70;;;;;;4977103;28;20038;-75
2024/02/24 05:42:57;;;;;;;0.50;0.30;;;4.00;76.90;;;;;;4977025;28;20019;-73
2024/02/24 05:45:22;;;;;;;0.73;0.30;;;4.00;76.90;;;;;;4977072;28;20029;-75
2024/02/24 05:47:48;;;;;;;0.40;0.20;;;4.00;77.30;;;;;;4976956;28;20105;-74
2024/02/24 05:50:13;;;;;;;0.38;0.38;;;3.90;77.50;;;;;;4976968;28;20141;-75
2024/02/24 05:52:39;;;;;;;0.20;0.20;;;3.90;77.80;;;;;;4976774;28;20030;-74
2024/02/24 05:55:07;;;;;;;0.45;0.22;;;3.90;77.50;;;;;;4976991;28;20030;-74
2024/02/24 05:57:32;;;;;;;1.33;0.30;;;3.90;76.90;;;;;;4976817;28;20479;-74
2024/02/24 05:59:59;;;;;;;0.43;0.32;;;3.90;77.00;;;;;;4976608;28;20027;-73
2024/02/24 06:02:24;;;;;;;1.75;0.40;;;4.00;77.40;;;;;;4976775;28;20112;-73
2024/02/24 06:04:50;;;;;;;0.85;0.32;;;4.00;77.70;;;;;;4976706;28;20082;-73
2024/02/24 06:07:16;;;;;;;0.25;0.20;;;3.90;77.80;;;;;;4976650;28;20027;-75
2024/02/24 06:09:41;;;;;;;0.88;0.30;;;3.90;77.40;;;;;;4976590;28;20031;-75
2024/02/24 06:12:07;;;;;;;1.95;0.20;;;3.90;78.60;;;;;;4976536;28;20078;-75
2024/02/24 06:14:33;;;;;;;0.30;0.30;;;3.90;79.90;;;;;;4976442;28;20101;-74
2024/02/24 06:16:58;;;;;;;0.30;0.28;;;3.90;80.30;;;;;;4976278;28;20049;-75
2024/02/24 06:19:24;;;;;;;0.93;0.30;;;3.90;79.50;;;;;;4976371;28;20077;-74
2024/02/24 06:21:49;;;;;;;0.60;0.20;;;3.80;79.90;;;;;;4976074;28;20058;-74
2024/02/24 06:24:15;;;;;;;1.10;0.20;;;3.80;79.60;;;;;;4976215;28;20082;-74
2024/02/24 06:26:41;;;;;;;0.32;0.28;;;3.80;79.20;;;;;;4976184;28;20027;-74
2024/02/24 06:29:07;;;;;;;0.80;0.30;;;3.90;79.30;;;;;;4976162;28;20380;-73
2024/02/24 06:31:33;;;;;;;0.45;0.30;;;3.90;78.90;;;;;;4976121;28;20030;-74
2024/02/24 06:33:59;;;;;;;0.50;0.30;;;3.90;78.50;;;;;;4975967;28;20035;-74
2024/02/24 06:36:25;;;;;;;1.65;0.30;;;4.00;77.50;;;;;;4976069;28;20057;-74
2024/02/24 06:38:50;;;;;;;0.35;0.22;;;4.00;77.10;;;;;;4975864;28;20464;-74
2024/02/24 06:41:18;;;;;;;1.13;0.30;;;4.10;76.30;;;;;;4975949;28;20365;-73
2024/02/24 06:43:44;;;;;;;0.30;0.30;;;4.10;76.90;;;;;;4975937;28;20019;-74
2024/02/24 06:46:11;;;;;;;0.22;0.22;;;4.10;76.40;;;;;;4976023;28;20141;-75
2024/02/24 06:48:36;;;;;;;0.50;0.30;;;4.10;77.00;;;;;;4975964;28;20470;-74
2024/02/24 06:51:03;;;;;;;0.50;0.30;;;4.20;78.20;;;;;;4958503;28;20117;-74
2024/02/24 06:53:29;;;;;;;0.38;0.30;;;4.10;78.60;;;;;;4975654;28;20056;-74
2024/02/24 06:55:54;;;;;;;1.90;0.73;;;4.10;78.50;;;;;;4958587;28;20019;-74
2024/02/24 06:58:20;;;;;;;0.35;0.30;;;4.00;78.80;;;;;;4975553;28;20078;-72
2024/02/24 07:00:45;;;;;;;0.60;0.38;;;4.10;78.50;;;;;;4975317;28;20035;-74
2024/02/24 07:03:11;;;;;;;0.77;0.50;;;4.10;78.40;;;;;;4975535;28;20033;-73
2024/02/24 07:05:36;;;;;;;1.27;0.70;;;4.10;76.10;;;;;;4975500;28;20489;-75
2024/02/24 07:08:02;;;;;;;1.90;0.47;;;4.10;79.00;;;;;;4957836;28;20027;-74
2024/02/24 07:10:28;;;;;;;1.92;0.40;;;4.10;78.90;;;;;;4975473;28;20035;-74
2024/02/24 07:12:54;;;;;;;1.15;0.30;;;4.00;79.10;;;;;;4958141;28;20380;-73
2024/02/24 07:15:19;;;;;;;0.57;0.30;;;4.10;73.70;;;;;;4974047;28;20109;-73
2024/02/24 07:17:45;;;;;;;2.00;0.35;;;4.20;74.10;;;;;;4957920;28;20031;-74
2024/02/24 07:20:12;;;;;;;1.40;0.65;;;4.30;70.70;;;;;;4957324;28;20034;-73
2024/02/24 07:22:37;;;;;;;0.70;0.50;;;4.30;69.50;;;;;;4973871;28;20054;-73
2024/02/24 07:25:03;;;;;;;0.70;0.40;;;4.40;69.40;;;;;;4958009;28;20023;-73
2024/02/24 07:27:29;;;;;;;0.30;0.30;;;4.40;67.60;;;;;;4973665;28;20503;-73
2024/02/24 07:29:54;;;;;;;1.17;0.38;;;4.50;66.80;;;;;;4957644;28;20114;-74
2024/02/24 07:32:20;;;;;;;0.50;0.45;;;4.50;67.00;;;;;;4974885;28;20494;-74
2024/02/24 07:34:45;;;;;;;1.08;0.60;;;4.50;67.00;;;;;;4956643;28;20026;-74
2024/02/24 07:37:11;;;;;;;0.35;0.30;;;4.60;67.00;;;;;;4974609;28;20413;-74
2024/02/24 07:39:37;;;;;;;1.13;0.70;;;4.60;67.40;;;;;;4974659;28;20405;-74
2024/02/24 07:42:03;;;;;;;1.15;0.70;;;4.60;68.00;;;;;;4958048;28;20030;-74
2024/02/24 07:44:29;;;;;;;0.30;0.30;;;4.60;68.40;;;;;;4957710;28;20090;-74
2024/02/24 07:46:54;;;;;;;0.68;0.50;;;4.60;66.80;;;;;;4957472;28;20026;-73
2024/02/24 07:49:20;;;;;;;0.73;0.43;;;4.60;67.00;;;;;;4974607;28;20027;-75
2024/02/24 07:51:45;;;;;;;1.85;0.40;;;4.70;66.00;;;;;;4974472;28;20054;-74
2024/02/24 07:54:11;;;;;;;1.52;0.40;;;4.70;66.90;;;;;;4974572;28;20472;-74
2024/02/24 07:56:37;;;;;;;0.82;0.70;;;4.80;65.70;;;;;;4956952;28;20483;-75
2024/02/24 07:59:02;;;;;;;0.70;0.50;;;5.00;66.10;;;;;;4957268;28;20472;-75
2024/02/24 08:01:29;;;;;;;0.85;0.55;;;5.10;66.20;;;;;;4974362;28;20400;-74
2024/02/24 08:03:56;;;;;;;4.13;1.20;;;5.10;65.50;;;;;;4988036;28;20062;-75
2024/02/24 08:06:22;;;;;;;1.40;0.70;;;5.30;66.30;;;;;;4958755;28;20118;-76
2024/02/24 08:08:48;;;;;;;1.42;0.65;;;5.10;67.30;;;;;;4954149;29;20027;-78
2024/02/24 08:11:13;;;;;;;1.02;0.55;;;5.20;70.50;;;;;;4958394;28;20499;-74
2024/02/24 08:13:41;;;;;;;2.42;0.90;;;5.20;69.40;;;;;;4955987;28;20389;-77
2024/02/24 08:16:08;;;;;;;1.02;0.60;;;5.10;69.80;;;;;;4974037;28;20055;-76
2024/02/24 08:18:34;;;;;;;1.90;1.30;;;5.10;70.30;;;;;;4957087;28;20097;-77
2024/02/24 08:21:05;;;;;;;2.10;1.10;;;5.00;71.10;;;;;;4974166;28;20476;-76
2024/02/24 08:23:30;;;;;;;1.33;0.90;;;5.10;73.60;;;;;;4974250;28;20108;-72
2024/02/24 08:25:56;;;;;;;2.53;1.20;;;5.50;72.90;;;;;;4956697;28;20547;-72
2024/02/24 08:28:21;;;;;;;1.80;0.80;;;5.70;71.30;;;;;;4974116;28;20480;-83
2024/02/24 08:30:47;;;;;;;1.48;1.05;;;5.80;70.40;;;;;;4974563;28;20035;-73
2024/02/24 08:33:13;;;;;;;1.17;0.43;;;5.90;67.70;;;;;;4956869;28;20030;-74
2024/02/24 08:35:38;;;;;;;0.52;0.40;;;5.80;63.60;;;;;;4973916;28;20421;-82
2024/02/24 08:38:04;;;;;;;0.30;0.30;;;5.70;63.20;;;;;;4974077;28;20030;-80
2024/02/24 08:40:30;;;;;;;0.75;0.50;;;5.70;63.90;;;;;;4974072;28;20038;-79
2024/02/24 08:42:55;;;;;;;0.55;0.30;;;5.80;62.70;;;;;;4973727;28;20169;-78
2024/02/24 08:45:21;;;;;;;1.10;0.50;;;5.70;63.00;;;;;;4957951;28;20161;-81
2024/02/24 08:47:47;;;;;;;0.80;0.22;;;5.90;62.90;;;;;;4960815;28;20031;-79
2024/02/24 08:50:12;;;;;;;0.32;0.22;;;5.90;61.40;;;;;;4982189;28;20033;-83
2024/02/24 08:52:38;;;;;;;0.40;0.30;;;5.80;60.70;;;;;;4966264;28;20019;-88
2024/02/24 08:55:04;;;;;;;0.40;0.30;;;5.90;60.80;;;;;;4966085;28;20050;-78
2024/02/24 08:57:29;;;;;;;3.00;0.40;;;6.30;59.80;;;;;;4961191;28;20078;-72
2024/02/24 08:59:55;;;;;;;1.65;0.45;;;6.50;59.10;;;;;;4959841;28;20031;-75
2024/02/24 09:02:20;;;;;;;0.32;0.20;;;6.50;58.90;;;;;;4977658;28;20526;-75
2024/02/24 09:04:47;;;;;;;0.98;0.47;;;6.20;59.00;;;;;;4977517;28;20033;-74
2024/02/24 09:07:12;;;;;;;1.02;0.57;;;6.20;57.70;;;;;;4976321;28;20030;-74
2024/02/24 09:09:38;;;;;;;1.27;0.60;;;6.00;59.20;;;;;;4977503;28;20019;-75
2024/02/24 09:12:03;;;;;;;1.55;0.20;;;6.10;59.40;;;;;;4960431;28;20054;-75
2024/02/24 09:14:29;;;;;;;1.00;0.45;;;6.10;57.50;;;;;;4960108;28;20439;-74
2024/02/24 09:16:56;;;;;;;0.63;0.38;;;6.20;58.40;;;;;;4947319;29;20062;-75
2024/02/24 09:19:22;;;;;;;0.40;0.22;;;6.40;58.00;;;;;;4941200;29;20057;-75
2024/02/24 09:21:48;;;;;;;1.13;0.50;;;6.50;58.80;;;;;;4957718;29;20118;-75
2024/02/24 09:24:13;;;;;;;0.82;0.60;;;6.60;57.20;;;;;;4940586;29;20552;-75
2024/02/24 09:26:39;;;;;;;1.35;0.70;;;6.60;55.70;;;;;;4940724;29;20031;-74
2024/02/24 09:29:04;;;;;;;1.50;0.40;;;6.80;56.20;;;;;;4940964;29;20122;-77
2024/02/24 09:31:30;;;;;;;1.75;0.57;;;6.70;54.70;;;;;;4957910;29;20094;-75
2024/02/24 09:33:56;;;;;;;1.63;0.50;;;6.70;54.70;;;;;;4957688;29;20019;-75
2024/02/24 09:36:22;;;;;;;3.63;0.38;;;6.70;53.90;;;;;;4940216;29;20561;-75
2024/02/24 09:38:47;;;;;;;2.20;0.50;;;6.60;54.30;;;;;;4956343;29;20031;-74
2024/02/24 09:41:13;;;;;;;1.20;0.55;;;6.60;54.40;;;;;;4940233;29;20035;-75
2024/02/24 09:43:39;;;;;;;1.40;0.40;;;6.80;54.10;;;;;;4958126;29;20098;-76
2024/02/24 09:46:05;;;;;;;0.93;0.40;;;7.20;53.30;;;;;;4957856;29;20102;-75
2024/02/24 09:48:31;;;;;;;1.17;0.45;;;7.40;52.40;;;;;;4940008;29;20035;-76
2024/02/24 09:50:59;;;;;;;1.90;0.63;;;7.50;52.60;;;;;;4957473;29;20031;-76
2024/02/24 09:53:25;;;;;;;1.02;0.40;;;7.80;52.70;;;;;;4957645;29;20027;-76
2024/02/24 09:55:52;;;;;;;1.42;0.20;;;8.10;50.40;;;;;;4957367;29;20019;-76
2024/02/24 09:58:19;;;;;;;0.45;0.38;;;8.40;49.40;;;;;;4956618;28;20026;-76
2024/02/24 10:00:51;;;;;;;1.70;0.70;;;8.30;50.50;;;;;;4940138;29;20522;-77
2024/02/24 10:03:18;;;;;;;1.13;0.60;;;8.40;50.30;;;;;;4940128;29;20560;-76
2024/02/24 10:05:47;;;;;;;1.98;0.55;;;8.60;49.40;;;;;;4957074;29;20492;-76
2024/02/24 10:08:12;;;;;;;0.85;0.50;;;8.60;49.40;;;;;;4957184;29;20024;-76
2024/02/24 10:10:38;;;;;;;2.60;1.10;;;8.50;49.10;;;;;;4940050;29;20048;-76
2024/02/24 10:13:03;;;;;;;1.08;0.50;;;8.70;48.70;;;;;;4940252;29;20020;-75
2024/02/24 10:15:29;;;;;;;2.95;1.63;;;8.50;49.90;;;;;;4958353;28;20023;-76
2024/02/24 10:17:57;;;;;;;1.35;0.60;;;8.50;49.60;;;;;;4976272;28;20043;-76
2024/02/24 10:20:23;;;;;;;0.63;0.50;;;8.40;47.90;;;;;;4976214;28;20074;-76
2024/02/24 10:22:49;;;;;;;2.03;0.57;;;8.50;47.70;;;;;;4958758;28;20507;-76
2024/02/24 10:25:15;;;;;;;1.58;0.60;;;8.50;47.00;;;;;;4959090;28;20483;-75
2024/02/24 10:27:42;;;;;;;0.80;0.50;;;8.10;48.20;;;;;;4976024;28;20039;-77
2024/02/24 10:30:09;;;;;;;1.70;0.75;;;8.20;48.20;;;;;;4959151;28;20027;-77
2024/02/24 10:32:35;;;;;;;1.73;0.55;;;8.20;50.00;;;;;;4974279;28;20027;-76
2024/02/24 10:35:03;;;;;;;8.57;5.25;;;8.50;47.10;;;;;;4976074;28;20027;-75
2024/02/24 10:37:31;;;;;;;2.15;1.35;;;8.30;47.00;;;;;;4974899;28;20027;-75
2024/02/24 10:40:07;;;;;;;1.35;0.40;;;7.90;50.10;;;;;;4975867;28;20443;-76
2024/02/24 10:42:33;;;;;;;0.80;0.40;;;8.00;48.50;;;;;;4958056;28;20457;-76
2024/02/24 10:44:59;;;;;;;0.63;0.38;;;7.90;48.80;;;;;;4975588;28;20062;-76
2024/02/24 10:47:25;;;;;;;0.60;0.47;;;8.00;50.10;;;;;;4975731;28;20042;-76
2024/02/24 10:49:50;;;;;;;1.55;0.50;;;8.10;48.70;;;;;;4975981;28;20023;-76
2024/02/24 10:52:18;;;;;;;1.88;0.40;;;8.00;49.10;;;;;;4975766;28;20023;-77
2024/02/24 10:54:45;;;;;;;0.80;0.30;;;7.80;48.90;;;;;;4975693;28;20023;-76
2024/02/24 10:57:13;;;;;;;1.10;0.40;;;8.00;48.50;;;;;;4958325;28;20364;-75
2024/02/24 10:59:39;;;;;;;1.05;0.40;;;8.00;48.10;;;;;;4958265;28;20078;-76
2024/02/24 11:02:11;;;;;;;0.90;0.63;;;8.00;48.00;;;;;;4975421;28;20047;-76
2024/02/24 11:04:40;;;;;;;1.88;0.82;;;8.20;48.90;;;;;;4975494;28;20022;-76
2024/02/24 11:07:07;;;;;;;2.08;0.90;;;8.40;48.20;;;;;;4975305;28;20035;-76
2024/02/24 11:09:38;;;;;;;3.60;0.85;;;8.70;47.50;;;;;;4973495;28;20022;-76
2024/02/24 11:12:07;;;;;;;3.42;0.77;;;8.80;47.70;;;;;;4975390;28;20046;-75
2024/02/24 11:14:37;;;;;;;2.28;1.10;;;8.90;47.40;;;;;;4973915;28;20026;-76
2024/02/24 11:17:03;;;;;;;3.05;1.70;;;9.00;48.00;;;;;;4957570;28;20054;-75
2024/02/24 11:19:41;;;;;;;1.52;0.60;;;9.40;47.90;;;;;;4974964;28;20025;-76
2024/02/24 11:22:08;;;;;;;2.28;0.70;;;10.10;46.00;;;;;;4957763;28;20041;-76
2024/02/24 11:24:35;;;;;;;0.98;0.50;;;10.50;43.30;;;;;;4974747;28;20077;-75
2024/02/24 11:27:01;;;;;;;0.45;0.40;;;10.70;44.70;;;;;;4957723;28;20042;-75
2024/02/24 11:29:27;;;;;;;0.57;0.40;;;11.00;43.80;;;;;;4957103;28;20027;-76
2024/02/24 11:32:09;;;;;;;0.65;0.40;;;11.00;42.00;;;;;;4975350;28;20576;-74
2024/02/24 11:34:36;;;;;;;1.17;0.47;;;10.90;43.00;;;;;;4974911;28;20037;-74
2024/02/24 11:37:01;;;;;;;6.70;2.70;;;10.80;42.10;;;;;;4974840;28;20073;-75
2024/02/24 11:39:29;;;;;;;5.95;1.75;;;10.80;43.50;;;;;;4974743;28;20447;-76
2024/02/24 11:41:58;;;;;;;0.50;0.45;;;10.70;43.40;;;;;;4956817;28;20452;-75
2024/02/24 11:44:23;;;;;;;0.30;0.30;;;11.30;41.40;;;;;;4957498;28;20018;-77
2024/02/24 11:46:49;;;;;;;1.67;0.57;;;11.10;38.80;;;;;;4974735;28;20078;-78
2024/02/24 11:49:15;;;;;;;2.38;0.45;;;11.20;39.80;;;;;;4957592;28;20026;-77
2024/02/24 11:51:40;;;;;;;0.45;0.32;;;11.00;40.30;;;;;;4974780;28;20019;-75
2024/02/24 11:54:08;;;;;;;1.65;0.60;;;11.10;40.10;;;;;;4974544;28;20027;-75
2024/02/24 11:56:36;;;;;;;2.95;0.40;;;11.30;39.60;;;;;;4974588;28;20468;-75
2024/02/24 11:59:01;;;;;;;1.35;0.52;;;11.20;40.20;;;;;;4974684;28;20111;-74
2024/02/24 12:01:29;;;;;;;3.22;1.13;;;11.00;39.70;;;;;;4974224;28;20166;-76
2024/02/24 12:03:57;;;;;;;1.02;0.40;;;10.50;42.40;;;;;;4957222;28;20034;-75
2024/02/24 12:06:24;;;;;;;2.17;0.52;;;10.10;43.20;;;;;;4974434;28;20476;-76
2024/02/24 12:08:50;;;;;;;0.50;0.40;;;9.80;43.70;;;;;;4974154;28;20078;-76
2024/02/24 12:11:16;;;;;;;0.30;0.20;;;9.70;44.00;;;;;;4974637;28;20034;-76
2024/02/24 12:13:42;;;;;;;0.93;0.40;;;9.50;45.50;;;;;;4974277;28;20431;-76
2024/02/24 12:16:07;;;;;;;1.25;0.60;;;9.70;44.10;;;;;;4973568;28;20089;-77
2024/02/24 12:18:34;;;;;;;0.38;0.30;;;9.80;43.30;;;;;;4974070;28;20385;-73
2024/02/24 12:21:00;;;;;;;1.40;0.30;;;10.10;43.90;;;;;;4956233;28;20094;-74
2024/02/24 12:23:28;;;;;;;0.60;0.60;;;10.60;41.50;;;;;;4973945;28;20019;-76
2024/02/24 12:25:54;;;;;;;0.40;0.32;;;10.60;42.50;;;;;;4973983;28;20082;-75
2024/02/24 12:28:20;;;;;;;1.73;0.45;;;11.00;42.00;;;;;;4974072;28;20034;-73
2024/02/24 12:30:45;;;;;;;1.98;0.50;;;11.30;39.60;;;;;;4974039;28;20026;-74
2024/02/24 12:33:13;;;;;;;1.45;0.40;;;11.30;39.80;;;;;;4973888;28;20081;-76
2024/02/24 12:35:40;;;;;;;1.05;0.30;;;11.40;39.20;;;;;;4974123;28;20487;-75
2024/02/24 12:38:06;;;;;;;0.65;0.40;;;11.00;40.10;;;;;;4974144;28;20023;-76
2024/02/24 12:40:34;;;;;;;0.30;0.30;;;11.30;39.20;;;;;;4974551;28;20494;-73
2024/02/24 12:43:02;;;;;;;1.98;0.80;;;11.10;39.90;;;;;;4957065;28;20031;-75
2024/02/24 12:45:28;;;;;;;0.30;0.20;;;11.10;39.80;;;;;;4974285;28;20027;-75
2024/02/24 12:47:54;;;;;;;0.30;0.30;;;10.90;40.10;;;;;;4974408;28;20049;-75